createdAt,value
2023-05-20T00:03:13.624Z,0.0
2023-05-20T00:08:19.954Z,0.0
2023-05-20T00:13:26.333Z,0.0
2023-05-20T00:18:32.752Z,0.0
2023-05-20T00:23:39.114Z,0.0
2023-05-20T00:28:35.481Z,0.0
2023-05-20T00:33:51.924Z,0.0
2023-05-20T00:38:58.294Z,0.0
2023-05-20T00:44:40.295Z,0.0
2023-05-20T00:49:12.648Z,0.0
2023-05-20T00:54:20.554Z,0.0
2023-05-20T00:59:25.924Z,0.0
2023-05-20T01:04:33.355Z,0.0
2023-05-20T01:09:39.679Z,0.0
2023-05-20T01:14:49.630Z,0.0
2023-05-20T01:19:56.097Z,0.0
2023-05-20T01:25:02.428Z,0.0
2023-05-20T01:30:08.794Z,0.0
2023-05-20T01:35:05.170Z,0.0
2023-05-20T01:40:21.542Z,0.0
2023-05-20T01:45:28.144Z,0.0
2023-05-20T01:50:24.543Z,0.0
2023-05-20T01:55:40.913Z,0.0
2023-05-20T02:00:47.312Z,0.0
2023-05-20T02:05:55.303Z,0.0
2023-05-20T02:11:01.598Z,0.0
2023-05-20T02:16:09.584Z,0.0
2023-05-20T02:21:16.023Z,0.0
2023-05-20T02:26:22.325Z,0.0
2023-05-20T02:31:28.713Z,0.0
2023-05-20T02:36:36.911Z,0.0
2023-05-20T02:41:43.332Z,0.0
2023-05-20T02:46:49.759Z,0.0
2023-05-20T02:52:16.426Z,0.0
2023-05-20T02:56:52.642Z,4.0
2023-05-20T03:02:09.061Z,4.0
2023-05-20T03:07:19.090Z,8.0
2023-05-20T03:12:25.448Z,24.0
2023-05-20T03:17:35.475Z,40.0
2023-05-20T03:22:41.839Z,68.0
2023-05-20T03:27:48.179Z,112.0
2023-05-20T03:32:54.612Z,164.0
2023-05-20T03:38:02.589Z,236.0
2023-05-20T03:43:08.913Z,328.0
2023-05-20T03:48:05.360Z,448.0
2023-05-20T03:53:21.709Z,584.0
2023-05-20T03:58:28.167Z,716.0
2023-05-20T04:03:34.684Z,852.0
2023-05-20T04:08:40.989Z,988.0
2023-05-20T04:13:47.328Z,1108.0
2023-05-20T04:18:53.774Z,1248.0
2023-05-20T04:24:00.137Z,1404.0
2023-05-20T04:29:06.460Z,1584.0
2023-05-20T04:34:12.836Z,1760.0
2023-05-20T04:39:19.233Z,1968.0
2023-05-20T04:44:15.607Z,2184.0
2023-05-20T04:49:31.973Z,2408.0
2023-05-20T04:54:38.390Z,2592.0
2023-05-20T04:59:44.737Z,2796.0
2023-05-20T05:04:52.753Z,3012.0
2023-05-20T05:09:59.137Z,3204.0
2023-05-20T05:15:05.474Z,3376.0
2023-05-20T05:20:11.821Z,3604.0
2023-05-20T05:25:19.806Z,3836.0
2023-05-20T05:30:26.183Z,4040.0
2023-05-20T05:35:32.869Z,4180.0
2023-05-20T05:40:38.985Z,4268.0
2023-05-20T05:45:46.928Z,4356.0
2023-05-20T05:50:53.449Z,4360.0
2023-05-20T05:55:59.965Z,4440.0
2023-05-20T06:00:56.335Z,4612.0
2023-05-20T06:06:02.682Z,4744.0
2023-05-20T06:11:19.103Z,4856.0
2023-05-20T06:16:25.475Z,4952.0
2023-05-20T06:21:31.823Z,5072.0
2023-05-20T06:26:38.211Z,5208.0
2023-05-20T06:31:44.564Z,5388.0
2023-05-20T06:36:50.949Z,5548.0
2023-05-20T06:41:57.362Z,5720.0
2023-05-20T06:47:03.713Z,6696.0
2023-05-20T06:52:10.082Z,7096.0
2023-05-20T06:57:18.059Z,6640.0
2023-05-20T07:02:24.471Z,7280.0
2023-05-20T07:07:34.367Z,9140.0
2023-05-20T07:12:44.771Z,9548.0
2023-05-20T07:17:47.141Z,10248.0
2023-05-20T07:22:56.510Z,10348.0
2023-05-20T07:28:04.484Z,10920.0
2023-05-20T07:33:09.859Z,12104.0
2023-05-20T07:38:17.244Z,13004.0
2023-05-20T07:43:23.716Z,13696.0
2023-05-20T07:48:30.004Z,15104.0
2023-05-20T07:53:37.543Z,11464.0
2023-05-20T07:58:44.186Z,17696.0
2023-05-20T08:03:50.634Z,18688.0
2023-05-20T08:08:56.913Z,19712.0
2023-05-20T08:14:03.341Z,21248.0
2023-05-20T08:19:09.719Z,23648.0
2023-05-20T08:24:16.187Z,25952.0
2023-05-20T08:29:22.578Z,25152.0
2023-05-20T08:34:29.507Z,26624.0
2023-05-20T08:39:35.856Z,31744.0
2023-05-20T08:44:42.275Z,35040.0
2023-05-20T08:49:48.633Z,24352.0
2023-05-20T08:54:55.002Z,22208.0
2023-05-20T09:00:01.532Z,31328.0
2023-05-20T09:05:09.042Z,30240.0
2023-05-20T09:10:15.264Z,22400.0
2023-05-20T09:15:21.664Z,39744.0
2023-05-20T09:20:17.984Z,45248.0
2023-05-20T09:25:34.846Z,42080.0
2023-05-20T09:30:30.907Z,42336.0
2023-05-20T09:35:48.848Z,43424.0
2023-05-20T09:40:55.243Z,44992.0
2023-05-20T09:46:01.720Z,44704.0
2023-05-20T09:51:08.359Z,47456.0
2023-05-20T09:56:16.150Z,51936.0
2023-05-20T10:01:22.648Z,57984.0
2023-05-20T10:06:28.902Z,65888.0
2023-05-20T10:11:35.291Z,29696.0
2023-05-20T10:16:43.271Z,28832.0
2023-05-20T10:21:53.607Z,37536.0
2023-05-20T10:26:58.243Z,26080.0
2023-05-20T10:31:54.685Z,24896.0
2023-05-20T10:37:46.678Z,25568.0
2023-05-20T10:42:18.949Z,27200.0
2023-05-20T10:48:21.259Z,53984.0
2023-05-20T10:52:33.493Z,38624.0
2023-05-20T10:57:39.875Z,30752.0
2023-05-20T11:02:46.309Z,54432.0
2023-05-20T11:07:54.217Z,55776.0
2023-05-20T11:13:00.613Z,35296.0
2023-05-20T11:18:07.093Z,56864.0
2023-05-20T11:29:19.173Z,13232.0
2023-05-20T11:34:05.504Z,58944.0
2023-05-20T11:39:13.487Z,62848.0
2023-05-20T11:45:03.143Z,54752.0
2023-05-20T11:49:46.503Z,13980.0
2023-05-20T11:55:07.466Z,53984.0
2023-05-20T11:59:39.854Z,57632.0
2023-05-20T12:04:46.386Z,54976.0
2023-05-20T12:09:53.625Z,57664.0
2023-05-20T12:15:05.089Z,60832.0
2023-05-20T12:20:36.456Z,54336.0
2023-05-20T12:25:19.258Z,54912.0
2023-05-20T12:30:25.612Z,16100.0
2023-05-20T12:35:31.985Z,19008.0
2023-05-20T12:40:38.890Z,18112.0
2023-05-20T12:45:44.742Z,28032.0
2023-05-20T12:50:51.126Z,54240.0
2023-05-20T12:55:57.572Z,15360.0
2023-05-20T13:00:55.254Z,16736.0
2023-05-20T13:06:37.284Z,19360.0
2023-05-20T13:11:23.972Z,21728.0
2023-05-20T13:16:29.634Z,16960.0
2023-05-20T13:21:32.931Z,18944.0
2023-05-20T13:26:39.330Z,18560.0
2023-05-20T13:31:44.661Z,13620.0
2023-05-20T13:36:54.921Z,18240.0
2023-05-20T13:42:02.335Z,26240.0
2023-05-20T13:47:08.775Z,30784.0
2023-05-20T13:52:05.058Z,18624.0
2023-05-20T13:57:21.713Z,16704.0
2023-05-20T14:13:28.329Z,12580.0
2023-05-20T14:17:50.646Z,13496.0
2023-05-20T14:22:57.031Z,15392.0
2023-05-20T14:27:53.407Z,13884.0
2023-05-20T14:33:09.864Z,12352.0
2023-05-20T14:38:16.156Z,13988.0
2023-05-20T14:43:22.594Z,11900.0
2023-05-20T14:48:29.064Z,13148.0
2023-05-20T14:53:58.453Z,9720.0
2023-05-20T14:58:41.813Z,7300.0
2023-05-20T15:03:48.260Z,7376.0
2023-05-20T15:09:14.612Z,7160.0
2023-05-20T15:14:00.956Z,7516.0
2023-05-20T15:19:07.461Z,7676.0
2023-05-20T15:24:13.741Z,7948.0
2023-05-20T15:29:57.020Z,7212.0
2023-05-20T15:36:22.293Z,7580.0
2023-05-20T15:40:08.489Z,8468.0
2023-05-20T15:44:39.810Z,7560.0
2023-05-20T15:49:47.177Z,6896.0
2023-05-20T15:54:43.682Z,6484.0
2023-05-20T15:59:59.930Z,7828.0
2023-05-20T16:05:09.388Z,5968.0
2023-05-20T16:10:15.806Z,6980.0
2023-05-20T16:15:12.137Z,7376.0
2023-05-20T16:20:28.569Z,7352.0
2023-05-20T16:25:34.969Z,7356.0
2023-05-20T16:30:31.302Z,7512.0
2023-05-20T16:35:36.718Z,6124.0
2023-05-20T16:40:54.255Z,5640.0
2023-05-20T16:46:04.669Z,4384.0
2023-05-20T16:51:07.002Z,4928.0
2023-05-20T16:56:03.438Z,4704.0
2023-05-20T17:01:19.854Z,2956.0
2023-05-20T17:06:26.181Z,2552.0
2023-05-20T17:11:22.749Z,2448.0
2023-05-20T17:16:43.182Z,2292.0
2023-05-20T17:21:35.486Z,2236.0
2023-05-20T17:26:55.905Z,2232.0
2023-05-20T17:31:58.270Z,2292.0
2023-05-20T17:37:39.870Z,1880.0
2023-05-20T17:42:16.518Z,1480.0
2023-05-20T17:52:31.951Z,1408.0
2023-05-20T17:57:38.954Z,1168.0
2023-05-20T18:02:44.521Z,1544.0
2023-05-20T18:07:51.892Z,1472.0
2023-05-20T18:12:58.302Z,1000.0
2023-05-20T18:18:28.761Z,812.0
2023-05-20T18:23:11.054Z,604.0
2023-05-20T18:28:17.472Z,592.0
2023-05-20T18:33:24.017Z,592.0
2023-05-20T18:39:28.176Z,556.0
2023-05-20T18:43:36.450Z,516.0
2023-05-20T18:48:42.811Z,552.0
2023-05-20T18:53:50.215Z,636.0
2023-05-20T18:58:56.799Z,448.0
2023-05-20T19:04:03.154Z,328.0
2023-05-20T19:09:09.524Z,320.0
2023-05-20T19:14:16.004Z,296.0
2023-05-20T19:19:22.696Z,220.0
2023-05-20T19:24:29.014Z,156.0
2023-05-20T19:29:35.450Z,104.0
2023-05-20T19:35:09.882Z,60.0
2023-05-20T19:40:12.264Z,32.0
2023-05-20T19:44:54.706Z,16.0
2023-05-20T19:50:01.243Z,8.0
2023-05-20T19:55:07.619Z,4.0
2023-05-20T20:00:14.129Z,4.0
2023-05-20T20:05:23.054Z,0.0
2023-05-20T20:10:26.798Z,0.0
2023-05-20T20:15:33.517Z,0.0
2023-05-20T20:20:39.906Z,0.0
2023-05-20T20:25:46.105Z,0.0
2023-05-20T20:30:55.600Z,0.0
2023-05-20T20:36:01.963Z,0.0
2023-05-20T20:41:08.337Z,0.0
2023-05-20T20:46:14.866Z,0.0
2023-05-20T20:51:45.244Z,0.0
2023-05-20T20:56:27.616Z,0.0
2023-05-20T21:01:34.044Z,0.0
2023-05-20T21:06:40.438Z,0.0
2023-05-20T21:11:46.877Z,0.0
2023-05-20T21:17:13.317Z,0.0
2023-05-20T21:22:02.657Z,0.0
2023-05-20T21:27:06.022Z,0.0
2023-05-20T21:32:12.415Z,0.0
2023-05-20T21:37:42.872Z,0.0
2023-05-20T21:42:25.186Z,0.0
2023-05-20T21:47:31.613Z,0.0
2023-05-20T21:52:37.998Z,0.0
2023-05-20T21:57:44.571Z,0.0
2023-05-20T22:02:51.219Z,0.0
2023-05-20T22:09:05.628Z,0.0
2023-05-20T22:13:04.033Z,0.0
2023-05-20T22:18:10.386Z,0.0
2023-05-20T22:23:16.971Z,0.0
2023-05-20T22:28:23.773Z,0.0
2023-05-20T22:33:29.999Z,0.0
2023-05-20T22:39:20.383Z,0.0
2023-05-20T22:44:06.777Z,0.0
2023-05-20T22:48:49.098Z,0.0
2023-05-20T22:54:15.663Z,0.0
2023-05-20T22:59:02.011Z,0.0
2023-05-20T23:04:08.494Z,0.0
2023-05-20T23:09:14.836Z,0.0
2023-05-20T23:14:21.244Z,0.0
2023-05-20T23:19:26.865Z,0.0
2023-05-20T23:24:34.172Z,0.0
2023-05-20T23:29:40.578Z,0.0
2023-05-20T23:34:46.969Z,0.0
2023-05-20T23:39:53.305Z,0.0
2023-05-20T23:44:59.769Z,0.0
2023-05-20T23:50:06.216Z,0.0
2023-05-20T23:55:32.638Z,0.0
